ENY3346 MYAM-KMIA
Flight info
| Callsign | ENY3346 |
|---|---|
| Flight time | 0h 49m |
| Altitude | 30000 |
| Route | REPEE BNFSH2 |
| Aircraft | E75L/M-SDE3GILORVW/S |
Departure
| Time | 2026-04-16 03:11 |
|---|---|
| Airport | Leonard M. Thompson International Airport (MYAM) |
Arrival
| Time | 2026-04-16 04:00 |
|---|---|
| Airport | Miami International Airport (KMIA) |
| Time | Latitude | Longitude | Altitude | Speed | Heading |
|---|---|---|---|---|---|
| 2026-04-16 02:42 | 26.51284 | -77.07816 | 17 ft | 0 kts | 16° |
| 2026-04-16 03:05 | 26.51287 | -77.07813 | 17 ft | 1 kts | 49° |
| 2026-04-16 03:05 | 26.51282 | -77.07803 | 17 ft | 2 kts | 164° |
| 2026-04-16 03:05 | 26.51257 | -77.07815 | 17 ft | 6 kts | 199° |
| 2026-04-16 03:06 | 26.51209 | -77.07836 | 17 ft | 8 kts | 224° |
| 2026-04-16 03:06 | 26.51170 | -77.07900 | 17 ft | 11 kts | 245° |
| 2026-04-16 03:06 | 26.51149 | -77.08113 | 17 ft | 15 kts | 269° |
| 2026-04-16 03:07 | 26.51145 | -77.08240 | 17 ft | 17 kts | 269° |
| 2026-04-16 03:07 | 26.51141 | -77.08379 | 16 ft | 17 kts | 268° |
| 2026-04-16 03:07 | 26.51138 | -77.08508 | 15 ft | 15 kts | 269° |
| 2026-04-16 03:07 | 26.51137 | -77.08634 | 15 ft | 16 kts | 268° |
| 2026-04-16 03:08 | 26.51132 | -77.08768 | 14 ft | 18 kts | 268° |
| 2026-04-16 03:08 | 26.51127 | -77.08916 | 13 ft | 19 kts | 270° |
| 2026-04-16 03:08 | 26.51124 | -77.09071 | 13 ft | 20 kts | 269° |
| 2026-04-16 03:08 | 26.51119 | -77.09238 | 13 ft | 21 kts | 267° |
| 2026-04-16 03:09 | 26.51114 | -77.09411 | 13 ft | 22 kts | 269° |
| 2026-04-16 03:09 | 26.51056 | -77.09476 | 13 ft | 13 kts | 178° |
| 2026-04-16 03:09 | 26.50991 | -77.09457 | 13 ft | 7 kts | 101° |
| 2026-04-16 03:09 | 26.50990 | -77.09433 | 13 ft | 0 kts | 89° |
| 2026-04-16 03:10 | 26.50993 | -77.09330 | 13 ft | 43 kts | 86° |
| 2026-04-16 03:10 | 26.51007 | -77.08740 | 15 ft | 107 kts | 87° |
| 2026-04-16 03:10 | 26.51025 | -77.07757 | 193 ft | 135 kts | 86° |
| 2026-04-16 03:11 | 26.51058 | -77.06754 | 852 ft | 130 kts | 85° |
| 2026-04-16 03:11 | 26.51082 | -77.05683 | 1274 ft | 150 kts | 85° |
| 2026-04-16 03:11 | 26.51121 | -77.04401 | 1553 ft | 185 kts | 86° |
| 2026-04-16 03:11 | 26.51161 | -77.02850 | 1789 ft | 217 kts | 86° |
| 2026-04-16 03:12 | 26.51145 | -77.00967 | 2143 ft | 270 kts | 97° |
| 2026-04-16 03:12 | 26.50279 | -76.98992 | 2384 ft | 299 kts | 129° |
| 2026-04-16 03:12 | 26.48487 | -76.97759 | 2635 ft | 314 kts | 160° |
| 2026-04-16 03:12 | 26.46276 | -76.97665 | 2882 ft | 325 kts | 190° |
| 2026-04-16 03:13 | 26.44158 | -76.98508 | 3609 ft | 324 kts | 192° |
| 2026-04-16 03:13 | 26.41917 | -76.98840 | 4346 ft | 328 kts | 185° |
| 2026-04-16 03:13 | 26.39636 | -76.99222 | 5096 ft | 333 kts | 185° |
| 2026-04-16 03:13 | 26.37339 | -76.99574 | 5801 ft | 337 kts | 186° |
| 2026-04-16 03:14 | 26.34999 | -76.99941 | 6505 ft | 341 kts | 186° |
| 2026-04-16 03:14 | 26.32658 | -77.00308 | 7202 ft | 345 kts | 186° |
| 2026-04-16 03:14 | 26.30319 | -77.01008 | 7873 ft | 352 kts | 206° |
| 2026-04-16 03:14 | 26.28487 | -77.02795 | 8577 ft | 356 kts | 235° |
| 2026-04-16 03:15 | 26.27564 | -77.05337 | 9279 ft | 358 kts | 262° |
| 2026-04-16 03:15 | 26.27746 | -77.08052 | 9975 ft | 357 kts | 289° |
| 2026-04-16 03:15 | 26.28458 | -77.10723 | 10709 ft | 363 kts | 283° |
| 2026-04-16 03:15 | 26.28943 | -77.13500 | 11442 ft | 368 kts | 284° |
| 2026-04-16 03:16 | 26.29437 | -77.16283 | 12144 ft | 373 kts | 283° |
| 2026-04-16 03:16 | 26.29943 | -77.19151 | 12839 ft | 376 kts | 283° |
| 2026-04-16 03:16 | 26.30439 | -77.21983 | 13520 ft | 380 kts | 283° |
| 2026-04-16 03:16 | 26.30945 | -77.24873 | 14225 ft | 383 kts | 283° |
| 2026-04-16 03:17 | 26.31458 | -77.27796 | 14948 ft | 388 kts | 284° |
| 2026-04-16 03:17 | 26.31974 | -77.30759 | 15664 ft | 391 kts | 284° |
| 2026-04-16 03:17 | 26.32496 | -77.33740 | 16367 ft | 395 kts | 284° |
| 2026-04-16 03:17 | 26.33017 | -77.36731 | 17084 ft | 399 kts | 284° |
| 2026-04-16 03:18 | 26.33543 | -77.39753 | 17805 ft | 402 kts | 284° |
| 2026-04-16 03:18 | 26.34083 | -77.42857 | 18518 ft | 405 kts | 284° |
| 2026-04-16 03:18 | 26.34617 | -77.45930 | 19211 ft | 408 kts | 284° |
| 2026-04-16 03:18 | 26.35154 | -77.49025 | 19932 ft | 411 kts | 284° |
| 2026-04-16 03:19 | 26.35698 | -77.52171 | 20664 ft | 415 kts | 284° |
| 2026-04-16 03:19 | 26.36241 | -77.55305 | 21373 ft | 418 kts | 284° |
| 2026-04-16 03:19 | 26.36794 | -77.58505 | 22094 ft | 422 kts | 283° |
| 2026-04-16 03:19 | 26.37344 | -77.61690 | 22791 ft | 425 kts | 283° |
| 2026-04-16 03:20 | 26.37904 | -77.64949 | 23513 ft | 430 kts | 284° |
| 2026-04-16 03:20 | 26.38462 | -77.68197 | 24231 ft | 434 kts | 283° |
| 2026-04-16 03:20 | 26.39029 | -77.71513 | 24960 ft | 437 kts | 283° |
| 2026-04-16 03:20 | 26.39602 | -77.74844 | 25691 ft | 442 kts | 284° |
| 2026-04-16 03:21 | 26.40184 | -77.78239 | 26431 ft | 445 kts | 284° |
| 2026-04-16 03:21 | 26.40757 | -77.81597 | 27158 ft | 447 kts | 284° |
| 2026-04-16 03:21 | 26.41340 | -77.85006 | 27893 ft | 447 kts | 284° |
| 2026-04-16 03:21 | 26.41915 | -77.88377 | 28610 ft | 446 kts | 284° |
| 2026-04-16 03:22 | 26.42490 | -77.91760 | 29286 ft | 445 kts | 284° |
| 2026-04-16 03:22 | 26.43065 | -77.95145 | 29918 ft | 444 kts | 284° |
| 2026-04-16 03:22 | 26.43647 | -77.98554 | 29958 ft | 454 kts | 284° |
| 2026-04-16 03:23 | 26.44828 | -78.05529 | 29998 ft | 461 kts | 284° |
| 2026-04-16 03:23 | 26.46013 | -78.12551 | 29999 ft | 464 kts | 284° |
| 2026-04-16 03:24 | 26.47197 | -78.19595 | 29996 ft | 465 kts | 284° |
| 2026-04-16 03:24 | 26.48389 | -78.26695 | 29997 ft | 465 kts | 284° |
| 2026-04-16 03:25 | 26.49569 | -78.33748 | 29992 ft | 465 kts | 284° |
| 2026-04-16 03:25 | 26.50751 | -78.40840 | 29986 ft | 464 kts | 284° |
| 2026-04-16 03:26 | 26.51924 | -78.47897 | 29986 ft | 464 kts | 284° |
| 2026-04-16 03:26 | 26.53095 | -78.54967 | 29988 ft | 464 kts | 284° |
| 2026-04-16 03:27 | 26.54266 | -78.62065 | 29992 ft | 465 kts | 284° |
| 2026-04-16 03:27 | 26.55406 | -78.69138 | 29986 ft | 466 kts | 280° |
| 2026-04-16 03:27 | 26.55401 | -78.72769 | 29964 ft | 470 kts | 269° |
| 2026-04-16 03:28 | 26.55221 | -78.76415 | 30016 ft | 470 kts | 270° |
| 2026-04-16 03:28 | 26.54868 | -78.83657 | 29990 ft | 471 kts | 270° |
| 2026-04-16 03:29 | 26.54513 | -78.90982 | 29985 ft | 471 kts | 270° |
| 2026-04-16 03:29 | 26.54155 | -78.98267 | 29981 ft | 471 kts | 270° |
| 2026-04-16 03:30 | 26.54001 | -79.05510 | 29987 ft | 469 kts | 274° |
| 2026-04-16 03:30 | 26.54014 | -79.12799 | 29982 ft | 469 kts | 273° |
| 2026-04-16 03:31 | 26.54017 | -79.20049 | 29982 ft | 469 kts | 273° |
| 2026-04-16 03:31 | 26.54014 | -79.27329 | 29980 ft | 469 kts | 273° |
| 2026-04-16 03:32 | 26.54009 | -79.34601 | 29976 ft | 469 kts | 273° |
| 2026-04-16 03:34 | 26.50292 | -79.62870 | 29985 ft | 480 kts | 245° |
| 2026-04-16 03:34 | 26.47193 | -79.69462 | 29975 ft | 480 kts | 245° |
| 2026-04-16 03:35 | 26.43314 | -79.75464 | 30004 ft | 484 kts | 229° |
| 2026-04-16 03:35 | 26.41019 | -79.78258 | 29842 ft | 488 kts | 230° |
| 2026-04-16 03:35 | 26.38828 | -79.80929 | 28218 ft | 451 kts | 232° |
| 2026-04-16 03:35 | 26.37068 | -79.83580 | 26730 ft | 404 kts | 238° |
| 2026-04-16 03:36 | 26.35566 | -79.85998 | 25807 ft | 368 kts | 237° |
| 2026-04-16 03:36 | 26.34165 | -79.88229 | 24848 ft | 340 kts | 237° |
| 2026-04-16 03:36 | 26.32859 | -79.90318 | 23914 ft | 318 kts | 237° |
| 2026-04-16 03:36 | 26.31636 | -79.92272 | 23035 ft | 308 kts | 237° |
| 2026-04-16 03:37 | 26.30417 | -79.94223 | 22203 ft | 307 kts | 237° |
| 2026-04-16 03:37 | 26.29205 | -79.96159 | 21412 ft | 308 kts | 237° |
| 2026-04-16 03:37 | 26.27982 | -79.98109 | 20614 ft | 308 kts | 237° |
| 2026-04-16 03:37 | 26.26771 | -80.00035 | 19816 ft | 307 kts | 237° |
| 2026-04-16 03:38 | 26.25380 | -80.01794 | 19027 ft | 305 kts | 213° |
| 2026-04-16 03:38 | 26.23433 | -80.02646 | 18315 ft | 304 kts | 190° |
| 2026-04-16 03:38 | 26.21364 | -80.03081 | 17535 ft | 301 kts | 191° |
| 2026-04-16 03:38 | 26.19346 | -80.03562 | 16719 ft | 297 kts | 191° |
| 2026-04-16 03:39 | 26.17334 | -80.04024 | 15895 ft | 293 kts | 191° |
| 2026-04-16 03:39 | 26.15375 | -80.04474 | 15081 ft | 287 kts | 190° |
| 2026-04-16 03:39 | 26.13428 | -80.04917 | 14257 ft | 281 kts | 190° |
| 2026-04-16 03:39 | 26.11540 | -80.05349 | 13447 ft | 276 kts | 190° |
| 2026-04-16 03:40 | 26.09700 | -80.05769 | 12654 ft | 272 kts | 190° |
| 2026-04-16 03:40 | 26.07853 | -80.06190 | 11853 ft | 269 kts | 190° |
| 2026-04-16 03:40 | 26.06036 | -80.06624 | 11050 ft | 266 kts | 192° |
| 2026-04-16 03:40 | 26.04274 | -80.07091 | 10256 ft | 262 kts | 191° |
| 2026-04-16 03:41 | 26.02514 | -80.07546 | 9447 ft | 259 kts | 192° |
| 2026-04-16 03:41 | 26.00771 | -80.08003 | 8636 ft | 256 kts | 191° |
| 2026-04-16 03:41 | 25.99077 | -80.08443 | 7835 ft | 251 kts | 191° |
| 2026-04-16 03:41 | 25.97388 | -80.08881 | 7015 ft | 247 kts | 191° |
| 2026-04-16 03:42 | 25.95731 | -80.09312 | 6190 ft | 242 kts | 191° |
| 2026-04-16 03:42 | 25.94110 | -80.09731 | 5401 ft | 242 kts | 190° |
| 2026-04-16 03:42 | 25.92472 | -80.10257 | 5026 ft | 247 kts | 206° |
| 2026-04-16 03:42 | 25.91219 | -80.11501 | 5018 ft | 239 kts | 227° |
| 2026-04-16 03:43 | 25.90108 | -80.12872 | 4979 ft | 238 kts | 226° |
| 2026-04-16 03:43 | 25.88992 | -80.14239 | 4983 ft | 239 kts | 226° |
| 2026-04-16 03:43 | 25.87928 | -80.15642 | 4980 ft | 240 kts | 240° |
| 2026-04-16 03:43 | 25.87607 | -80.17432 | 4995 ft | 238 kts | 279° |
| 2026-04-16 03:44 | 25.87795 | -80.19282 | 5002 ft | 243 kts | 272° |
| 2026-04-16 03:44 | 25.87777 | -80.21151 | 4970 ft | 243 kts | 270° |
| 2026-04-16 03:44 | 25.87732 | -80.23038 | 4871 ft | 243 kts | 269° |
| 2026-04-16 03:44 | 25.87675 | -80.24878 | 4765 ft | 238 kts | 269° |
| 2026-04-16 03:45 | 25.87618 | -80.26684 | 4653 ft | 233 kts | 269° |
| 2026-04-16 03:45 | 25.87572 | -80.28461 | 4531 ft | 228 kts | 275° |
| 2026-04-16 03:45 | 25.88050 | -80.30107 | 4424 ft | 222 kts | 302° |
| 2026-04-16 03:45 | 25.88802 | -80.31601 | 4356 ft | 225 kts | 301° |
| 2026-04-16 03:46 | 25.89544 | -80.33128 | 4276 ft | 226 kts | 301° |
| 2026-04-16 03:46 | 25.90294 | -80.34664 | 4195 ft | 226 kts | 301° |
| 2026-04-16 03:46 | 25.91042 | -80.36195 | 4103 ft | 226 kts | 301° |
| 2026-04-16 03:46 | 25.91790 | -80.37739 | 3976 ft | 227 kts | 301° |
| 2026-04-16 03:47 | 25.92536 | -80.39270 | 3830 ft | 226 kts | 301° |
| 2026-04-16 03:47 | 25.93283 | -80.40806 | 3686 ft | 224 kts | 301° |
| 2026-04-16 03:47 | 25.93775 | -80.42439 | 3524 ft | 227 kts | 274° |
| 2026-04-16 03:47 | 25.93731 | -80.44202 | 3431 ft | 225 kts | 270° |
| 2026-04-16 03:48 | 25.93704 | -80.45911 | 3379 ft | 224 kts | 270° |
| 2026-04-16 03:48 | 25.93674 | -80.47649 | 3318 ft | 225 kts | 270° |
| 2026-04-16 03:48 | 25.93597 | -80.49380 | 3179 ft | 228 kts | 268° |
| 2026-04-16 03:48 | 25.93510 | -80.51137 | 3038 ft | 227 kts | 268° |
| 2026-04-16 03:49 | 25.93423 | -80.52880 | 2982 ft | 225 kts | 268° |
| 2026-04-16 03:49 | 25.93336 | -80.54610 | 2980 ft | 224 kts | 268° |
| 2026-04-16 03:49 | 25.93251 | -80.56342 | 2981 ft | 223 kts | 268° |
| 2026-04-16 03:49 | 25.93165 | -80.58072 | 2980 ft | 224 kts | 268° |
| 2026-04-16 03:50 | 25.93070 | -80.59791 | 2978 ft | 224 kts | 264° |
| 2026-04-16 03:50 | 25.92408 | -80.61298 | 2941 ft | 223 kts | 220° |
| 2026-04-16 03:50 | 25.91016 | -80.61900 | 2980 ft | 213 kts | 176° |
| 2026-04-16 03:50 | 25.89696 | -80.61296 | 2974 ft | 202 kts | 130° |
| 2026-04-16 03:51 | 25.89217 | -80.59978 | 2945 ft | 179 kts | 86° |
| 2026-04-16 03:51 | 25.89584 | -80.58749 | 2974 ft | 159 kts | 63° |
| 2026-04-16 03:51 | 25.90119 | -80.57762 | 3015 ft | 141 kts | 58° |
| 2026-04-16 03:51 | 25.90676 | -80.56893 | 2952 ft | 133 kts | 55° |
| 2026-04-16 03:52 | 25.91235 | -80.56094 | 2975 ft | 131 kts | 54° |
| 2026-04-16 03:52 | 25.91808 | -80.55296 | 2984 ft | 135 kts | 56° |
| 2026-04-16 03:52 | 25.92013 | -80.54303 | 2968 ft | 139 kts | 98° |
| 2026-04-16 03:52 | 25.91617 | -80.53311 | 3003 ft | 142 kts | 114° |
| 2026-04-16 03:53 | 25.91158 | -80.52321 | 2977 ft | 143 kts | 114° |
| 2026-04-16 03:53 | 25.90687 | -80.51357 | 2980 ft | 142 kts | 115° |
| 2026-04-16 03:53 | 25.90204 | -80.50393 | 2978 ft | 142 kts | 115° |
| 2026-04-16 03:53 | 25.89726 | -80.49443 | 2977 ft | 142 kts | 115° |
| 2026-04-16 03:54 | 25.89245 | -80.48495 | 2963 ft | 134 kts | 115° |
| 2026-04-16 03:54 | 25.88800 | -80.47629 | 2978 ft | 125 kts | 115° |
| 2026-04-16 03:54 | 25.88370 | -80.46783 | 2979 ft | 126 kts | 115° |
| 2026-04-16 03:54 | 25.87943 | -80.45943 | 2983 ft | 125 kts | 114° |
| 2026-04-16 03:55 | 25.87511 | -80.45093 | 2979 ft | 127 kts | 114° |
| 2026-04-16 03:55 | 25.87069 | -80.44221 | 2912 ft | 129 kts | 115° |
| 2026-04-16 03:55 | 25.86625 | -80.43349 | 2788 ft | 129 kts | 115° |
| 2026-04-16 03:55 | 25.86184 | -80.42486 | 2664 ft | 128 kts | 115° |
| 2026-04-16 03:56 | 25.85746 | -80.41631 | 2541 ft | 127 kts | 114° |
| 2026-04-16 03:56 | 25.85313 | -80.40779 | 2366 ft | 128 kts | 115° |
| 2026-04-16 03:56 | 25.84876 | -80.39919 | 2147 ft | 127 kts | 115° |
| 2026-04-16 03:56 | 25.84444 | -80.39075 | 1978 ft | 123 kts | 115° |
| 2026-04-16 03:57 | 25.84017 | -80.38251 | 1931 ft | 125 kts | 116° |
| 2026-04-16 03:57 | 25.83547 | -80.37440 | 1686 ft | 123 kts | 117° |
| 2026-04-16 03:57 | 25.83105 | -80.36650 | 1434 ft | 118 kts | 115° |
| 2026-04-16 03:57 | 25.82730 | -80.35875 | 1217 ft | 113 kts | 112° |
| 2026-04-16 03:58 | 25.82381 | -80.35084 | 1042 ft | 114 kts | 112° |
| 2026-04-16 03:58 | 25.81971 | -80.34298 | 953 ft | 121 kts | 116° |
| 2026-04-16 03:58 | 25.81560 | -80.33484 | 792 ft | 123 kts | 113° |
| 2026-04-16 03:58 | 25.81147 | -80.32622 | 592 ft | 126 kts | 115° |
| 2026-04-16 03:59 | 25.80711 | -80.31805 | 439 ft | 121 kts | 117° |
| 2026-04-16 03:59 | 25.80308 | -80.30988 | 251 ft | 120 kts | 115° |
| 2026-04-16 03:59 | 25.79900 | -80.30175 | 70 ft | 119 kts | 117° |
| 2026-04-16 03:59 | 25.79510 | -80.29406 | 13 ft | 103 kts | 117° |
| 2026-04-16 04:00 | 25.79203 | -80.28809 | 12 ft | 73 kts | 118° |
| 2026-04-16 04:00 | 25.79021 | -80.28445 | 12 ft | 38 kts | 116° |
| 2026-04-16 04:00 | 25.78975 | -80.28240 | 12 ft | 15 kts | 91° |
| 2026-04-16 04:00 | 25.79012 | -80.28163 | 12 ft | 10 kts | 36° |
| 2026-04-16 04:01 | 25.79068 | -80.28180 | 12 ft | 8 kts | 298° |
| 2026-04-16 04:01 | 25.79097 | -80.28240 | 12 ft | 8 kts | 300° |
| 2026-04-16 04:01 | 25.79129 | -80.28300 | 12 ft | 9 kts | 300° |
| 2026-04-16 04:01 | 25.79161 | -80.28361 | 12 ft | 9 kts | 300° |
| 2026-04-16 04:02 | 25.79201 | -80.28413 | 12 ft | 9 kts | 327° |
| 2026-04-16 04:02 | 25.79247 | -80.28465 | 12 ft | 10 kts | 301° |
| 2026-04-16 04:02 | 25.79287 | -80.28535 | 12 ft | 11 kts | 312° |
| 2026-04-16 04:02 | 25.79362 | -80.28562 | 12 ft | 12 kts | 355° |
| 2026-04-16 04:03 | 25.79451 | -80.28568 | 12 ft | 13 kts | 356° |
| 2026-04-16 04:03 | 25.79549 | -80.28571 | 12 ft | 14 kts | 354° |
| 2026-04-16 04:03 | 25.79631 | -80.28591 | 12 ft | 9 kts | 318° |
| 2026-04-16 04:03 | 25.79678 | -80.28615 | 12 ft | 8 kts | 26° |
| 2026-04-16 04:04 | 25.79695 | -80.28597 | 12 ft | 0 kts | 52° |